createdAt,value
2023-05-22T00:01:56.708Z,10.52
2023-05-22T00:04:23.907Z,10.35
2023-05-22T00:06:50.919Z,10.65
2023-05-22T00:09:17.962Z,8.88
2023-05-22T00:11:45.111Z,9.50
2023-05-22T00:14:13.750Z,9.15
2023-05-22T00:16:41.408Z,9.07
2023-05-22T00:19:13.440Z,8.73
2023-05-22T00:21:40.893Z,8.75
2023-05-22T00:24:08.368Z,8.70
2023-05-22T00:26:35.420Z,8.77
2023-05-22T00:29:02.460Z,9.10
2023-05-22T00:31:29.469Z,9.38
2023-05-22T00:33:56.491Z,9.23
2023-05-22T00:36:23.875Z,9.35
2023-05-22T00:38:51.087Z,9.20
2023-05-22T00:41:18.107Z,8.85
2023-05-22T00:43:47.616Z,8.57
2023-05-22T00:46:15.209Z,8.23
2023-05-22T00:48:42.243Z,8.45
2023-05-22T00:51:09.412Z,8.90
2023-05-22T00:53:37.194Z,8.60
2023-05-22T00:56:05.060Z,8.25
2023-05-22T00:58:32.623Z,8.45
2023-05-22T01:00:59.668Z,8.98
2023-05-22T01:03:28.429Z,8.15
2023-05-22T01:05:56.110Z,8.65
2023-05-22T01:08:23.165Z,8.70
2023-05-22T01:11:15.245Z,8.55
2023-05-22T01:14:04.115Z,7.85
2023-05-22T01:16:50.215Z,7.90
2023-05-22T01:19:31.109Z,8.68
2023-05-22T01:22:21.604Z,8.00
2023-05-22T01:25:09.754Z,8.52
2023-05-22T01:27:42.664Z,8.68
2023-05-22T01:30:25.294Z,9.20
2023-05-22T01:32:57.405Z,9.80
2023-05-22T01:35:25.258Z,10.30
2023-05-22T01:37:53.416Z,10.23
2023-05-22T01:40:21.124Z,10.55
2023-05-22T01:42:48.349Z,10.55
2023-05-22T01:45:15.331Z,10.20
2023-05-22T01:47:42.455Z,10.45
2023-05-22T01:50:09.968Z,9.23
2023-05-22T01:52:53.528Z,9.70
2023-05-22T01:55:29.286Z,9.90
2023-05-22T01:58:33.455Z,10.07
2023-05-22T02:01:02.205Z,9.48
2023-05-22T02:03:35.063Z,8.95
2023-05-22T02:06:08.981Z,9.02
2023-05-22T02:08:39.584Z,8.63
2023-05-22T02:11:08.115Z,9.13
2023-05-22T02:13:35.628Z,8.05
2023-05-22T02:16:04.095Z,7.72
2023-05-22T02:18:31.614Z,7.82
2023-05-22T02:20:59.164Z,8.00
2023-05-22T02:23:29.343Z,7.88
2023-05-22T02:25:57.014Z,8.13
2023-05-22T02:28:24.219Z,7.80
2023-05-22T02:30:51.384Z,8.25
2023-05-22T02:33:18.704Z,8.60
2023-05-22T02:35:46.198Z,8.95
2023-05-22T02:38:13.306Z,9.50
2023-05-22T02:40:40.702Z,9.13
2023-05-22T02:43:08.149Z,10.77
2023-05-22T02:45:36.203Z,9.18
2023-05-22T02:48:03.899Z,10.00
2023-05-22T02:50:32.257Z,9.52
2023-05-22T02:52:59.391Z,10.32
2023-05-22T02:55:26.436Z,10.27
2023-05-22T02:57:53.454Z,10.70
2023-05-22T03:00:22.064Z,9.98
2023-05-22T03:02:49.276Z,10.27
2023-05-22T03:05:17.656Z,9.88
2023-05-22T03:07:48.092Z,10.13
2023-05-22T03:10:15.634Z,9.60
2023-05-22T03:12:42.716Z,10.40
2023-05-22T03:15:11.153Z,10.07
2023-05-22T03:17:39.901Z,10.68
2023-05-22T03:20:08.669Z,10.63
2023-05-22T03:22:35.872Z,10.15
2023-05-22T03:25:04.006Z,10.20
2023-05-22T03:27:31.204Z,9.82
2023-05-22T03:29:58.246Z,8.50
2023-05-22T03:32:26.029Z,8.65
2023-05-22T03:34:53.044Z,8.95
2023-05-22T03:37:20.136Z,8.20
2023-05-22T03:39:47.485Z,9.43
2023-05-22T03:42:29.883Z,9.57
2023-05-22T03:44:57.712Z,9.02
2023-05-22T03:47:26.127Z,9.02
2023-05-22T03:49:53.120Z,9.38
2023-05-22T03:52:22.721Z,9.43
2023-05-22T03:54:49.672Z,8.48
2023-05-22T03:57:19.841Z,9.18
2023-05-22T03:59:46.979Z,8.85
2023-05-22T04:02:16.680Z,8.88
2023-05-22T04:04:46.200Z,8.30
2023-05-22T04:07:13.503Z,8.80
2023-05-22T04:09:41.318Z,8.70
2023-05-22T04:12:08.763Z,9.02
2023-05-22T04:14:35.840Z,9.50
2023-05-22T04:17:02.840Z,9.02
2023-05-22T04:19:30.290Z,9.52
2023-05-22T04:21:58.832Z,8.98
2023-05-22T04:24:25.811Z,10.07
2023-05-22T04:26:52.802Z,9.93
2023-05-22T04:29:22.092Z,9.60
2023-05-22T04:31:49.100Z,9.93
2023-05-22T04:34:16.980Z,9.27
2023-05-22T04:36:45.310Z,8.95
2023-05-22T04:39:13.945Z,9.27
2023-05-22T04:41:41.427Z,8.68
2023-05-22T04:44:08.649Z,8.80
2023-05-22T04:46:36.116Z,8.35
2023-05-22T04:49:03.336Z,9.13
2023-05-22T04:51:35.002Z,9.13
2023-05-22T04:54:02.091Z,8.80
2023-05-22T04:56:36.107Z,9.57
2023-05-22T04:59:05.475Z,9.98
2023-05-22T05:01:35.198Z,9.50
2023-05-22T05:04:03.909Z,8.90
2023-05-22T05:06:31.075Z,9.75
2023-05-22T05:08:58.141Z,8.68
2023-05-22T05:11:25.987Z,8.90
2023-05-22T05:13:53.035Z,9.27
2023-05-22T05:16:20.065Z,8.18
2023-05-22T05:18:47.423Z,8.25
2023-05-22T05:21:14.577Z,8.18
2023-05-22T05:23:42.458Z,7.65
2023-05-22T05:26:09.611Z,7.82
2023-05-22T05:28:37.535Z,7.43
2023-05-22T05:31:07.815Z,7.30
2023-05-22T05:33:53.217Z,7.72
2023-05-22T05:36:29.060Z,7.50
2023-05-22T05:38:58.433Z,8.00
2023-05-22T05:41:26.710Z,7.90
2023-05-22T05:44:01.260Z,7.45
2023-05-22T05:46:31.296Z,7.15
2023-05-22T05:48:58.628Z,8.18
2023-05-22T05:51:26.479Z,8.43
2023-05-22T05:53:53.736Z,7.82
2023-05-22T05:56:21.672Z,7.68
2023-05-22T05:58:49.108Z,7.28
2023-05-22T06:01:35.314Z,8.02
2023-05-22T06:04:04.257Z,8.05
2023-05-22T06:06:36.476Z,8.25
2023-05-22T06:09:26.258Z,8.63
2023-05-22T06:12:25.154Z,8.38
2023-05-22T06:14:52.140Z,8.68
2023-05-22T06:17:20.666Z,8.25
2023-05-22T06:19:48.650Z,7.28
2023-05-22T06:22:16.621Z,7.85
2023-05-22T06:24:46.226Z,7.40
2023-05-22T06:27:17.618Z,8.60
2023-05-22T06:29:44.872Z,8.48
2023-05-22T06:32:12.204Z,7.35
2023-05-22T06:34:41.159Z,7.40
2023-05-22T06:37:09.476Z,7.72
2023-05-22T06:39:40.802Z,7.70
2023-05-22T06:42:15.916Z,8.20
2023-05-22T06:45:19.840Z,7.95
2023-05-22T06:48:25.559Z,7.45
2023-05-22T06:51:10.937Z,8.10
2023-05-22T06:53:39.943Z,8.00
2023-05-22T06:56:12.897Z,7.15
2023-05-22T06:59:03.871Z,7.35
2023-05-22T07:01:51.884Z,6.53
2023-05-22T07:04:26.784Z,7.03
2023-05-22T07:07:01.138Z,7.78
2023-05-22T07:09:28.759Z,6.75
2023-05-22T07:11:55.924Z,7.13
2023-05-22T07:14:23.308Z,7.07
2023-05-22T07:16:51.252Z,6.40
2023-05-22T07:19:25.389Z,6.30
2023-05-22T07:21:54.441Z,7.45
2023-05-22T07:24:22.440Z,7.05
2023-05-22T07:26:50.553Z,6.43
2023-05-22T07:29:17.827Z,6.65
2023-05-22T07:31:48.339Z,6.07
2023-05-22T07:34:16.852Z,6.03
2023-05-22T07:36:45.190Z,6.07
2023-05-22T07:39:12.207Z,6.50
2023-05-22T07:41:41.167Z,6.50
2023-05-22T07:44:11.508Z,6.25
2023-05-22T07:46:38.985Z,7.20
2023-05-22T07:49:19.634Z,6.22
2023-05-22T07:51:47.298Z,6.30
2023-05-22T07:54:16.032Z,6.85
2023-05-22T07:56:46.069Z,7.13
2023-05-22T07:59:16.042Z,6.75
2023-05-22T08:01:43.140Z,7.13
2023-05-22T08:04:10.298Z,6.72
2023-05-22T08:06:37.416Z,6.53
2023-05-22T08:09:05.010Z,7.07
2023-05-22T08:11:33.993Z,6.90
2023-05-22T08:14:01.100Z,6.90
2023-05-22T08:16:28.073Z,7.15
2023-05-22T08:18:55.143Z,7.18
2023-05-22T08:21:22.178Z,9.63
2023-05-22T08:23:49.233Z,21.05
2023-05-22T08:26:19.251Z,7.88
2023-05-22T08:28:46.227Z,6.70
2023-05-22T08:31:14.927Z,6.82
2023-05-22T08:33:41.965Z,7.32
2023-05-22T08:36:08.925Z,6.82
2023-05-22T08:38:36.134Z,6.80
2023-05-22T08:41:03.979Z,6.88
2023-05-22T08:43:30.961Z,7.05
2023-05-22T08:46:04.157Z,6.60
2023-05-22T08:48:32.823Z,7.05
2023-05-22T08:51:07.765Z,7.22
2023-05-22T08:53:36.642Z,6.55
2023-05-22T08:56:06.843Z,6.80
2023-05-22T08:58:35.700Z,6.85
2023-05-22T09:01:04.900Z,6.80
2023-05-22T09:03:35.252Z,6.22
2023-05-22T09:06:04.582Z,6.18
2023-05-22T09:08:31.673Z,6.78
2023-05-22T09:10:58.657Z,5.95
2023-05-22T09:13:27.869Z,6.65
2023-05-22T09:15:59.544Z,6.47
2023-05-22T09:18:28.037Z,5.93
2023-05-22T09:20:57.652Z,6.50
2023-05-22T09:23:28.119Z,6.80
2023-05-22T09:25:56.787Z,6.45
2023-05-22T09:28:24.762Z,6.10
2023-05-22T09:30:53.344Z,6.57
2023-05-22T09:33:21.964Z,6.13
2023-05-22T09:35:52.108Z,6.43
2023-05-22T09:38:21.588Z,6.90
2023-05-22T09:40:55.977Z,6.28
2023-05-22T09:43:25.420Z,6.85
2023-05-22T09:46:01.908Z,6.05
2023-05-22T09:48:29.572Z,6.15
2023-05-22T09:50:59.750Z,6.40
2023-05-22T09:53:28.988Z,6.47
2023-05-22T09:56:01.643Z,5.95
2023-05-22T09:58:31.349Z,5.57
2023-05-22T10:00:59.611Z,5.95
2023-05-22T10:03:27.076Z,6.57
2023-05-22T10:05:58.952Z,6.55
2023-05-22T10:08:28.742Z,6.35
2023-05-22T10:10:56.081Z,6.18
2023-05-22T10:13:25.156Z,6.88
2023-05-22T10:15:53.273Z,5.95
2023-05-22T10:18:20.489Z,6.20
2023-05-22T10:20:48.354Z,6.85
2023-05-22T10:23:16.623Z,7.05
2023-05-22T10:25:45.622Z,8.90
2023-05-22T10:28:20.880Z,8.05
2023-05-22T10:31:26.767Z,6.30
2023-05-22T10:34:24.634Z,6.65
2023-05-22T10:37:13.139Z,7.85
2023-05-22T10:39:51.340Z,7.35
2023-05-22T10:42:18.339Z,7.60
2023-05-22T10:44:48.229Z,7.38
2023-05-22T10:47:15.237Z,7.47
2023-05-22T10:49:44.996Z,7.50
2023-05-22T10:52:14.637Z,7.32
2023-05-22T10:54:46.118Z,7.65
2023-05-22T10:57:18.747Z,7.47
2023-05-22T10:59:48.814Z,7.20
2023-05-22T11:02:29.352Z,7.25
2023-05-22T11:05:25.978Z,7.43
2023-05-22T11:07:52.986Z,7.90
2023-05-22T11:10:27.181Z,7.65
2023-05-22T11:13:11.699Z,7.88
2023-05-22T11:15:45.693Z,8.02
2023-05-22T11:18:14.523Z,7.90
2023-05-22T11:20:42.091Z,7.80
2023-05-22T11:23:11.140Z,7.43
2023-05-22T11:25:40.567Z,7.75
2023-05-22T11:28:07.936Z,6.82
2023-05-22T11:30:35.218Z,6.88
2023-05-22T11:33:02.762Z,7.22
2023-05-22T11:35:30.175Z,7.25
2023-05-22T11:37:57.247Z,6.97
2023-05-22T11:40:27.082Z,6.93
2023-05-22T11:42:54.225Z,7.55
2023-05-22T11:45:21.916Z,6.95
2023-05-22T11:47:49.717Z,7.38
2023-05-22T11:50:29.327Z,7.82
2023-05-22T11:53:02.813Z,7.43
2023-05-22T11:55:29.868Z,6.78
2023-05-22T11:57:58.558Z,7.53
2023-05-22T12:00:26.265Z,6.90
2023-05-22T12:02:54.573Z,7.32
2023-05-22T12:05:22.106Z,6.63
2023-05-22T12:07:49.108Z,6.72
2023-05-22T12:10:16.478Z,6.90
2023-05-22T12:12:44.646Z,7.88
2023-05-22T12:15:11.940Z,7.20
2023-05-22T12:17:40.236Z,8.00
2023-05-22T12:20:07.481Z,7.65
2023-05-22T12:22:40.649Z,7.88
2023-05-22T12:25:15.361Z,7.57
2023-05-22T12:27:45.081Z,7.97
2023-05-22T12:30:15.877Z,8.05
2023-05-22T12:32:50.697Z,7.30
2023-05-22T12:35:18.677Z,8.30
2023-05-22T12:37:50.232Z,8.88
2023-05-22T12:40:17.987Z,7.32
2023-05-22T12:42:45.170Z,7.47
2023-05-22T12:45:13.309Z,8.10
2023-05-22T12:47:40.428Z,7.18
2023-05-22T12:50:08.287Z,7.65
2023-05-22T12:52:36.220Z,7.85
2023-05-22T12:55:03.474Z,8.13
2023-05-22T12:57:30.469Z,7.55
2023-05-22T12:59:57.401Z,7.47
2023-05-22T13:02:24.527Z,8.35
2023-05-22T13:04:51.581Z,8.35
2023-05-22T13:07:18.608Z,7.93
2023-05-22T13:09:45.666Z,7.60
2023-05-22T13:12:12.821Z,8.07
2023-05-22T13:14:40.610Z,7.15
2023-05-22T13:17:08.047Z,7.22
2023-05-22T13:19:35.215Z,7.40
2023-05-22T13:22:02.329Z,8.07
2023-05-22T13:24:30.421Z,7.43
2023-05-22T13:26:57.513Z,7.05
2023-05-22T13:29:24.533Z,7.93
2023-05-22T13:31:51.544Z,7.20
2023-05-22T13:34:18.781Z,7.40
2023-05-22T13:36:46.577Z,7.75
2023-05-22T13:39:13.617Z,7.70
2023-05-22T13:41:40.817Z,7.40
2023-05-22T13:44:07.781Z,7.60
2023-05-22T13:46:34.833Z,8.45
2023-05-22T13:49:01.769Z,7.88
2023-05-22T13:51:28.768Z,7.85
2023-05-22T13:53:55.862Z,7.50
2023-05-22T13:56:23.546Z,8.02
2023-05-22T13:58:50.528Z,8.20
2023-05-22T14:01:20.106Z,8.50
2023-05-22T14:03:49.772Z,8.43
2023-05-22T14:06:16.789Z,7.80
2023-05-22T14:08:44.000Z,8.15
2023-05-22T14:11:11.264Z,7.35
2023-05-22T14:13:38.302Z,8.23
2023-05-22T14:16:05.496Z,8.13
2023-05-22T14:18:32.447Z,8.18
2023-05-22T14:20:59.503Z,7.90
2023-05-22T14:23:26.470Z,6.57
2023-05-22T14:25:53.463Z,8.05
2023-05-22T14:28:20.496Z,8.18
2023-05-22T14:30:47.639Z,8.20
2023-05-22T14:33:14.814Z,7.90
2023-05-22T14:35:41.965Z,7.53
2023-05-22T14:38:09.190Z,7.95
2023-05-22T14:40:36.192Z,9.35
2023-05-22T14:43:03.206Z,8.07
2023-05-22T14:45:30.255Z,6.80
2023-05-22T14:47:57.289Z,7.72
2023-05-22T14:50:24.291Z,7.32
2023-05-22T14:52:51.607Z,7.85
2023-05-22T14:55:18.898Z,7.05
2023-05-22T14:57:46.168Z,7.50
2023-05-22T15:00:14.296Z,7.10
2023-05-22T15:02:41.331Z,7.35
2023-05-22T15:05:09.757Z,7.82
2023-05-22T15:07:44.125Z,6.80
2023-05-22T15:10:13.094Z,7.60
2023-05-22T15:12:40.242Z,7.70
2023-05-22T15:15:07.859Z,8.02
2023-05-22T15:17:35.240Z,7.18
2023-05-22T15:20:02.829Z,7.18
2023-05-22T15:22:29.773Z,6.90
2023-05-22T15:25:07.928Z,6.97
2023-05-22T15:27:35.867Z,6.90
2023-05-22T15:30:04.081Z,6.35
2023-05-22T15:32:33.207Z,6.78
2023-05-22T15:35:00.502Z,6.60
2023-05-22T15:37:29.175Z,6.35
2023-05-22T15:39:57.840Z,6.57
2023-05-22T15:42:24.820Z,6.72
2023-05-22T15:44:51.966Z,6.90
2023-05-22T15:47:18.930Z,5.97
2023-05-22T15:49:45.973Z,6.20
2023-05-22T15:52:13.006Z,6.65
2023-05-22T15:54:40.033Z,6.88
2023-05-22T15:57:07.110Z,6.72
2023-05-22T15:59:34.178Z,5.88
2023-05-22T16:02:01.166Z,5.80
2023-05-22T16:04:28.253Z,6.70
2023-05-22T16:06:55.226Z,6.40
2023-05-22T16:09:22.215Z,6.30
2023-05-22T16:11:49.308Z,6.03
2023-05-22T16:14:16.331Z,6.25
2023-05-22T16:16:43.830Z,6.35
2023-05-22T16:19:11.663Z,5.88
2023-05-22T16:21:38.964Z,6.10
2023-05-22T16:24:07.021Z,6.00
2023-05-22T16:26:34.229Z,5.63
2023-05-22T16:29:01.225Z,5.82
2023-05-22T16:31:29.899Z,6.28
2023-05-22T16:33:56.926Z,6.53
2023-05-22T16:36:25.182Z,5.80
2023-05-22T16:38:54.085Z,5.85
2023-05-22T16:41:21.094Z,6.45
2023-05-22T16:43:48.127Z,6.55
2023-05-22T16:46:15.674Z,6.38
2023-05-22T16:48:42.679Z,6.38
2023-05-22T16:51:11.366Z,6.45
2023-05-22T16:53:40.671Z,6.32
2023-05-22T16:56:07.910Z,6.13
2023-05-22T16:58:34.931Z,6.32
2023-05-22T17:01:02.090Z,6.35
2023-05-22T17:03:30.534Z,6.10
2023-05-22T17:05:57.836Z,6.75
2023-05-22T17:08:28.171Z,5.97
2023-05-22T17:10:56.204Z,5.43
2023-05-22T17:13:23.696Z,5.97
2023-05-22T17:15:51.367Z,6.25
2023-05-22T17:18:22.373Z,5.30
2023-05-22T17:20:50.372Z,5.88
2023-05-22T17:23:17.956Z,5.55
2023-05-22T17:25:46.694Z,5.88
2023-05-22T17:28:14.726Z,5.40
2023-05-22T17:30:44.056Z,5.57
2023-05-22T17:33:12.216Z,5.55
2023-05-22T17:35:39.666Z,5.32
2023-05-22T17:38:08.525Z,5.53
2023-05-22T17:40:44.054Z,5.60
2023-05-22T17:43:12.164Z,5.63
2023-05-22T17:45:39.254Z,5.63
2023-05-22T17:48:07.722Z,5.85
2023-05-22T17:50:34.850Z,5.80
2023-05-22T17:53:01.855Z,6.20
2023-05-22T17:55:28.859Z,5.57
2023-05-22T17:57:56.185Z,5.90
2023-05-22T18:00:23.402Z,5.90
2023-05-22T18:02:50.724Z,5.78
2023-05-22T18:05:17.948Z,6.43
2023-05-22T18:07:44.892Z,5.70
2023-05-22T18:10:11.836Z,5.80
2023-05-22T18:12:38.923Z,5.93
2023-05-22T18:15:09.540Z,6.13
2023-05-22T18:17:36.662Z,6.03
2023-05-22T18:20:07.377Z,5.13
2023-05-22T18:22:37.152Z,5.93
2023-05-22T18:25:04.881Z,6.10
2023-05-22T18:27:39.344Z,5.88
2023-05-22T18:30:07.622Z,5.72
2023-05-22T18:32:34.893Z,6.15
2023-05-22T18:35:04.698Z,5.45
2023-05-22T18:37:32.198Z,5.93
2023-05-22T18:39:59.187Z,6.30
2023-05-22T18:42:26.343Z,5.78
2023-05-22T18:44:53.407Z,6.10
2023-05-22T18:47:20.579Z,6.20
2023-05-22T18:49:47.584Z,6.57
2023-05-22T18:52:14.611Z,6.13
2023-05-22T18:54:41.567Z,5.78
2023-05-22T18:57:08.560Z,6.18
2023-05-22T18:59:36.774Z,5.95
2023-05-22T19:02:03.789Z,6.30
2023-05-22T19:04:33.191Z,6.53
2023-05-22T19:07:00.356Z,6.70
2023-05-22T19:09:27.382Z,6.30
2023-05-22T19:11:54.380Z,6.15
2023-05-22T19:14:21.432Z,6.90
2023-05-22T19:16:48.439Z,6.80
2023-05-22T19:19:15.615Z,6.85
2023-05-22T19:21:42.707Z,7.57
2023-05-22T19:24:09.884Z,6.72
2023-05-22T19:26:36.892Z,7.05
2023-05-22T19:29:04.033Z,6.97
2023-05-22T19:31:31.230Z,7.20
2023-05-22T19:33:58.326Z,6.07
2023-05-22T19:36:25.479Z,7.75
2023-05-22T19:38:53.688Z,6.95
2023-05-22T19:41:22.973Z,7.03
2023-05-22T19:43:51.817Z,7.13
2023-05-22T19:46:18.997Z,6.88
2023-05-22T19:48:46.474Z,7.20
2023-05-22T19:51:13.547Z,7.20
2023-05-22T19:53:41.508Z,7.78
2023-05-22T19:56:08.693Z,7.40
2023-05-22T19:58:35.755Z,7.05
2023-05-22T20:01:02.831Z,7.22
2023-05-22T20:03:30.166Z,6.63
2023-05-22T20:05:57.297Z,7.40
2023-05-22T20:08:25.437Z,7.68
2023-05-22T20:11:01.885Z,6.93
2023-05-22T20:13:29.010Z,7.75
2023-05-22T20:15:57.329Z,7.43
2023-05-22T20:18:24.469Z,7.18
2023-05-22T20:20:51.759Z,8.50
2023-05-22T20:23:18.818Z,8.80
2023-05-22T20:25:48.969Z,8.07
2023-05-22T20:28:16.103Z,8.32
2023-05-22T20:30:43.132Z,7.97
2023-05-22T20:33:11.834Z,9.02
2023-05-22T20:35:39.153Z,10.57
2023-05-22T20:38:08.791Z,9.40
2023-05-22T20:40:36.877Z,9.27
2023-05-22T20:43:04.242Z,8.90
2023-05-22T20:45:31.387Z,8.45
2023-05-22T20:47:58.537Z,8.45
2023-05-22T20:50:25.628Z,8.63
2023-05-22T20:52:52.850Z,8.27
2023-05-22T20:55:19.886Z,8.52
2023-05-22T20:57:46.922Z,23.90
2023-05-22T21:00:14.727Z,8.85
2023-05-22T21:02:41.909Z,8.95
2023-05-22T21:05:09.410Z,9.63
2023-05-22T21:07:36.523Z,9.02
2023-05-22T21:10:03.819Z,8.63
2023-05-22T21:12:31.536Z,8.80
2023-05-22T21:14:58.528Z,8.95
2023-05-22T21:17:26.011Z,8.45
2023-05-22T21:19:53.133Z,8.23
2023-05-22T21:22:20.415Z,8.82
2023-05-22T21:24:48.083Z,9.52
2023-05-22T21:27:15.135Z,8.60
2023-05-22T21:29:42.510Z,8.35
2023-05-22T21:32:09.510Z,8.50
2023-05-22T21:34:36.634Z,8.90
2023-05-22T21:37:03.603Z,9.13
2023-05-22T21:39:30.653Z,8.38
2023-05-22T21:41:58.016Z,8.40
2023-05-22T21:44:25.111Z,8.82
2023-05-22T21:46:52.194Z,10.23
2023-05-22T21:49:19.175Z,10.95
2023-05-22T21:51:46.147Z,10.68
2023-05-22T21:54:13.114Z,10.40
2023-05-22T21:56:40.139Z,10.45
2023-05-22T21:59:07.113Z,9.77
2023-05-22T22:01:34.270Z,9.82
2023-05-22T22:04:01.438Z,9.85
2023-05-22T22:06:28.591Z,10.25
2023-05-22T22:08:59.006Z,10.45
2023-05-22T22:11:26.630Z,10.90
2023-05-22T22:13:54.105Z,11.43
2023-05-22T22:16:22.213Z,10.68
2023-05-22T22:18:50.326Z,11.57
2023-05-22T22:21:17.564Z,12.43
2023-05-22T22:23:44.593Z,11.40
2023-05-22T22:26:12.762Z,9.73
2023-05-22T22:28:39.684Z,9.63
2023-05-22T22:31:06.704Z,9.52
2023-05-22T22:33:33.672Z,8.70
2023-05-22T22:36:00.800Z,8.73
2023-05-22T22:38:27.989Z,9.48
2023-05-22T22:40:54.946Z,9.13
2023-05-22T22:43:21.957Z,9.18
2023-05-22T22:45:49.002Z,9.30
2023-05-22T22:48:16.693Z,9.00
2023-05-22T22:50:44.063Z,8.98
2023-05-22T22:53:11.149Z,9.10
2023-05-22T22:55:38.535Z,9.95
2023-05-22T22:58:06.762Z,8.98
2023-05-22T23:00:33.667Z,8.77
2023-05-22T23:03:00.767Z,9.80
2023-05-22T23:05:27.895Z,9.98
2023-05-22T23:07:54.936Z,9.38
2023-05-22T23:10:22.373Z,9.98
2023-05-22T23:12:50.057Z,9.80
2023-05-22T23:15:17.203Z,9.93
2023-05-22T23:17:44.265Z,9.45
2023-05-22T23:20:11.443Z,10.00
2023-05-22T23:22:38.479Z,9.90
2023-05-22T23:25:06.107Z,9.20
2023-05-22T23:27:33.073Z,9.70
2023-05-22T23:30:00.169Z,9.77
2023-05-22T23:32:27.159Z,9.40
2023-05-22T23:34:54.177Z,9.77
2023-05-22T23:37:21.139Z,9.63
2023-05-22T23:39:48.265Z,10.20
2023-05-22T23:42:16.929Z,9.18
2023-05-22T23:44:43.870Z,10.32
2023-05-22T23:47:10.931Z,9.65
2023-05-22T23:49:37.871Z,9.57
2023-05-22T23:52:04.980Z,9.50
2023-05-22T23:54:32.003Z,9.98
2023-05-22T23:56:58.962Z,10.27
2023-05-22T23:59:25.962Z,10.57
